createdAt,value
2022-10-24T00:01:17.297Z,14.90
2022-10-24T00:03:45.010Z,14.90
2022-10-24T00:06:12.885Z,14.90
2022-10-24T00:08:41.465Z,14.90
2022-10-24T00:11:14.681Z,14.90
2022-10-24T00:13:42.432Z,14.90
2022-10-24T00:16:09.585Z,14.90
2022-10-24T00:18:36.637Z,15.00
2022-10-24T00:21:04.396Z,14.90
2022-10-24T00:23:31.538Z,14.90
2022-10-24T00:26:01.670Z,14.90
2022-10-24T00:28:30.867Z,14.90
2022-10-24T00:30:58.094Z,14.90
2022-10-24T00:33:25.620Z,14.90
2022-10-24T00:35:52.449Z,15.00
2022-10-24T00:38:19.270Z,15.00
2022-10-24T00:40:46.263Z,15.00
2022-10-24T00:43:19.486Z,15.10
2022-10-24T00:45:48.145Z,15.10
2022-10-24T00:48:38.072Z,15.20
2022-10-24T00:51:10.185Z,15.20
2022-10-24T00:53:44.373Z,15.20
2022-10-24T00:56:13.966Z,15.20
2022-10-24T00:58:43.646Z,15.30
2022-10-24T01:01:11.943Z,15.30
2022-10-24T01:03:39.239Z,15.30
2022-10-24T01:06:09.134Z,15.30
2022-10-24T01:08:46.337Z,15.40
2022-10-24T01:11:29.156Z,15.40
2022-10-24T01:14:12.732Z,15.40
2022-10-24T01:17:00.074Z,15.40
2022-10-24T01:19:50.925Z,15.40
2022-10-24T01:22:24.291Z,15.30
2022-10-24T01:25:05.947Z,15.30
2022-10-24T01:27:56.074Z,15.30
2022-10-24T01:30:23.908Z,15.30
2022-10-24T01:32:59.572Z,15.30
2022-10-24T01:35:36.981Z,15.30
2022-10-24T01:38:16.811Z,15.30
2022-10-24T01:40:52.495Z,15.30
2022-10-24T01:43:24.909Z,15.30
2022-10-24T01:45:58.041Z,15.20
2022-10-24T01:48:28.212Z,15.40
2022-10-24T01:50:57.151Z,15.30
2022-10-24T01:53:26.081Z,15.30
2022-10-24T01:55:54.362Z,15.20
2022-10-24T01:58:21.342Z,15.20
2022-10-24T02:00:49.911Z,15.30
2022-10-24T02:03:40.737Z,15.20
2022-10-24T02:06:40.512Z,15.20
2022-10-24T02:09:13.191Z,15.20
2022-10-24T02:11:41.565Z,15.20
2022-10-24T02:14:36.152Z,15.20
2022-10-24T02:17:04.048Z,15.20
2022-10-24T02:19:32.297Z,15.20
2022-10-24T02:22:21.637Z,15.20
2022-10-24T02:25:27.931Z,15.30
2022-10-24T02:28:15.594Z,15.20
2022-10-24T02:30:47.590Z,15.20
2022-10-24T02:33:16.052Z,15.20
2022-10-24T02:35:45.781Z,15.20
2022-10-24T02:38:19.663Z,15.20
2022-10-24T02:40:48.069Z,15.10
2022-10-24T02:43:16.224Z,15.10
2022-10-24T02:45:43.423Z,15.10
2022-10-24T02:48:14.292Z,15.10
2022-10-24T02:50:42.832Z,15.10
2022-10-24T02:53:13.772Z,15.30
2022-10-24T02:55:40.920Z,15.10
2022-10-24T02:58:07.883Z,15.10
2022-10-24T03:00:34.775Z,15.20
2022-10-24T03:03:01.706Z,15.00
2022-10-24T03:05:28.579Z,15.10
2022-10-24T03:07:55.567Z,15.00
2022-10-24T03:10:22.442Z,15.00
2022-10-24T03:12:49.268Z,15.00
2022-10-24T03:15:16.353Z,15.00
2022-10-24T03:17:43.917Z,15.00
2022-10-24T03:20:11.189Z,15.00
2022-10-24T03:22:38.023Z,15.00
2022-10-24T03:25:06.283Z,15.00
2022-10-24T03:27:34.147Z,15.00
2022-10-24T03:30:01.659Z,15.00
2022-10-24T03:32:28.531Z,14.90
2022-10-24T03:34:55.411Z,14.90
2022-10-24T03:37:22.441Z,14.90
2022-10-24T03:39:49.342Z,14.90
2022-10-24T03:42:16.120Z,14.90
2022-10-24T03:44:43.002Z,15.00
2022-10-24T03:47:09.863Z,15.00
2022-10-24T03:49:36.676Z,14.90
2022-10-24T03:52:03.840Z,14.90
2022-10-24T03:54:30.983Z,15.00
2022-10-24T03:56:57.934Z,14.90
2022-10-24T03:59:24.735Z,14.90
2022-10-24T04:01:51.710Z,14.90
2022-10-24T04:04:18.616Z,14.90
2022-10-24T04:06:45.479Z,14.90
2022-10-24T04:09:12.644Z,14.90
2022-10-24T04:11:39.535Z,14.90
2022-10-24T04:14:06.560Z,14.90
2022-10-24T04:16:34.743Z,14.90
2022-10-24T04:19:01.769Z,14.90
2022-10-24T04:21:28.609Z,14.80
2022-10-24T04:23:55.723Z,14.80
2022-10-24T04:26:23.246Z,14.80
2022-10-24T04:28:50.865Z,14.80
2022-10-24T04:31:20.948Z,14.70
2022-10-24T04:33:50.470Z,14.70
2022-10-24T04:36:17.321Z,14.70
2022-10-24T04:38:44.153Z,14.70
2022-10-24T04:41:12.188Z,14.70
2022-10-24T04:43:40.060Z,14.60
2022-10-24T04:46:07.128Z,14.60
2022-10-24T04:48:34.795Z,14.60
2022-10-24T04:51:01.911Z,14.60
2022-10-24T04:53:28.719Z,14.60
2022-10-24T04:55:55.602Z,14.60
2022-10-24T04:58:22.472Z,14.60
2022-10-24T05:00:50.286Z,14.60
2022-10-24T05:03:18.284Z,14.60
2022-10-24T05:05:45.459Z,14.60
2022-10-24T05:08:12.336Z,14.60
2022-10-24T05:10:39.310Z,14.60
2022-10-24T05:13:06.234Z,14.60
2022-10-24T05:15:33.147Z,14.60
2022-10-24T05:18:00.460Z,14.60
2022-10-24T05:20:27.617Z,14.60
2022-10-24T05:22:54.597Z,14.70
2022-10-24T05:25:21.888Z,14.70
2022-10-24T05:27:52.188Z,14.70
2022-10-24T05:30:19.151Z,14.70
2022-10-24T05:32:46.490Z,14.70
2022-10-24T05:35:14.046Z,14.60
2022-10-24T05:37:44.116Z,14.60
2022-10-24T05:40:12.461Z,14.60
2022-10-24T05:42:39.339Z,14.60
2022-10-24T05:45:08.587Z,14.60
2022-10-24T05:47:35.635Z,14.70
2022-10-24T05:50:02.518Z,14.60
2022-10-24T05:52:29.428Z,14.70
2022-10-24T05:55:06.985Z,14.70
2022-10-24T05:57:35.451Z,14.70
2022-10-24T06:00:02.855Z,14.70
2022-10-24T06:02:29.909Z,14.70
2022-10-24T06:04:58.744Z,14.70
2022-10-24T06:07:25.826Z,14.70
2022-10-24T06:09:55.925Z,14.70
2022-10-24T06:12:22.937Z,14.80
2022-10-24T06:14:49.777Z,14.70
2022-10-24T06:17:16.603Z,14.80
2022-10-24T06:19:43.901Z,14.80
2022-10-24T06:22:10.800Z,14.80
2022-10-24T06:24:40.824Z,14.90
2022-10-24T06:27:07.783Z,14.90
2022-10-24T06:29:35.802Z,14.90
2022-10-24T06:32:03.341Z,15.00
2022-10-24T06:34:30.257Z,15.00
2022-10-24T06:36:57.297Z,15.00
2022-10-24T06:39:24.138Z,15.10
2022-10-24T06:41:51.021Z,15.10
2022-10-24T06:44:17.974Z,15.10
2022-10-24T06:46:45.036Z,15.20
2022-10-24T06:49:13.281Z,15.20
2022-10-24T06:51:41.598Z,15.30
2022-10-24T06:54:08.983Z,15.40
2022-10-24T06:56:35.994Z,15.40
2022-10-24T06:59:03.024Z,15.50
2022-10-24T07:01:31.653Z,15.50
2022-10-24T07:03:58.782Z,15.50
2022-10-24T07:06:28.692Z,15.60
2022-10-24T07:08:58.830Z,15.70
2022-10-24T07:11:25.979Z,15.80
2022-10-24T07:13:55.315Z,15.80
2022-10-24T07:16:25.611Z,15.90
2022-10-24T07:18:53.740Z,15.90
2022-10-24T07:21:28.329Z,16.00
2022-10-24T07:23:56.277Z,16.00
2022-10-24T07:26:25.364Z,16.10
2022-10-24T07:28:58.455Z,16.10
2022-10-24T07:31:28.389Z,16.20
2022-10-24T07:33:55.500Z,16.20
2022-10-24T07:36:25.043Z,16.30
2022-10-24T07:38:54.422Z,16.30
2022-10-24T07:41:21.388Z,16.40
2022-10-24T07:43:48.280Z,16.50
2022-10-24T07:46:17.680Z,16.50
2022-10-24T07:48:48.335Z,16.60
2022-10-24T07:51:15.642Z,16.70
2022-10-24T07:53:43.094Z,16.80
2022-10-24T07:56:15.651Z,16.90
2022-10-24T07:58:44.257Z,17.00
2022-10-24T08:01:21.196Z,17.10
2022-10-24T08:03:49.779Z,17.20
2022-10-24T08:06:19.430Z,17.30
2022-10-24T08:08:46.399Z,17.40
2022-10-24T08:11:23.030Z,17.50
2022-10-24T08:13:51.612Z,17.60
2022-10-24T08:16:23.834Z,17.70
2022-10-24T08:18:52.376Z,17.80
2022-10-24T08:21:21.116Z,17.90
2022-10-24T08:23:50.085Z,18.00
2022-10-24T08:26:19.961Z,18.10
2022-10-24T08:28:47.328Z,18.20
2022-10-24T08:31:18.037Z,18.20
2022-10-24T08:33:45.991Z,18.30
2022-10-24T08:36:42.294Z,18.40
2022-10-24T08:39:09.626Z,18.40
2022-10-24T08:41:50.898Z,18.50
2022-10-24T08:44:25.684Z,18.60
2022-10-24T08:47:02.460Z,18.70
2022-10-24T08:50:03.194Z,18.80
2022-10-24T08:52:35.848Z,18.90
2022-10-24T08:55:25.159Z,18.90
2022-10-24T08:57:58.497Z,19.10
2022-10-24T09:00:31.720Z,19.10
2022-10-24T09:03:10.099Z,19.20
2022-10-24T09:05:53.307Z,19.20
2022-10-24T09:08:37.318Z,19.30
2022-10-24T09:11:07.014Z,19.40
2022-10-24T09:13:37.875Z,19.40
2022-10-24T09:16:04.970Z,19.40
2022-10-24T09:18:40.157Z,19.40
2022-10-24T09:21:09.328Z,19.50
2022-10-24T09:23:38.351Z,19.60
2022-10-24T09:26:13.053Z,19.60
2022-10-24T09:28:40.203Z,19.70
2022-10-24T09:31:18.296Z,19.80
2022-10-24T09:33:47.690Z,19.80
2022-10-24T09:36:17.776Z,19.80
2022-10-24T09:38:45.043Z,19.80
2022-10-24T09:41:24.504Z,19.80
2022-10-24T09:44:00.480Z,19.90
2022-10-24T09:46:29.828Z,19.90
2022-10-24T09:49:03.874Z,20.00
2022-10-24T09:51:45.426Z,20.00
2022-10-24T09:54:18.383Z,20.00
2022-10-24T09:56:55.104Z,20.00
2022-10-24T09:59:35.990Z,20.10
2022-10-24T10:02:21.041Z,20.10
2022-10-24T10:04:50.203Z,20.10
2022-10-24T10:07:25.526Z,20.20
2022-10-24T10:09:58.684Z,20.20
2022-10-24T10:12:35.986Z,20.30
2022-10-24T10:15:26.881Z,20.30
2022-10-24T10:17:59.096Z,20.40
2022-10-24T10:20:41.030Z,20.50
2022-10-24T10:23:25.455Z,20.60
2022-10-24T10:26:09.054Z,20.70
2022-10-24T10:28:52.466Z,20.70
2022-10-24T10:31:23.654Z,20.80
2022-10-24T10:33:59.767Z,20.70
2022-10-24T10:36:47.787Z,20.70
2022-10-24T10:39:51.780Z,20.70
2022-10-24T10:42:25.387Z,20.70
2022-10-24T10:45:14.549Z,20.60
2022-10-24T10:48:04.121Z,20.70
2022-10-24T10:50:55.370Z,20.60
2022-10-24T10:53:53.311Z,20.70
2022-10-24T10:56:32.409Z,20.70
2022-10-24T10:59:28.561Z,20.80
2022-10-24T11:02:18.266Z,20.90
2022-10-24T11:05:20.167Z,21.00
2022-10-24T11:08:24.170Z,21.20
2022-10-24T11:11:02.441Z,21.20
2022-10-24T11:14:07.702Z,21.30
2022-10-24T11:16:37.564Z,21.30
2022-10-24T11:19:39.822Z,21.30
2022-10-24T11:22:13.380Z,21.20
2022-10-24T11:24:47.446Z,21.20
2022-10-24T11:27:22.198Z,21.30
2022-10-24T11:30:04.829Z,21.30
2022-10-24T11:32:40.852Z,21.30
2022-10-24T11:35:27.224Z,21.30
2022-10-24T11:38:03.860Z,21.20
2022-10-24T11:40:31.499Z,21.20
2022-10-24T11:43:25.757Z,21.30
2022-10-24T11:46:12.703Z,21.40
2022-10-24T11:48:57.619Z,21.50
2022-10-24T11:51:40.789Z,21.50
2022-10-24T11:54:33.760Z,21.60
2022-10-24T11:57:11.438Z,21.50
2022-10-24T11:59:40.995Z,21.40
2022-10-24T12:02:44.332Z,21.20
2022-10-24T12:08:29.331Z,21.10
2022-10-24T12:11:04.350Z,21.00
2022-10-24T12:14:18.956Z,20.90
2022-10-24T12:17:31.980Z,20.90
2022-10-24T12:20:01.500Z,20.80
2022-10-24T12:22:37.966Z,20.80
2022-10-24T12:25:19.110Z,20.90
2022-10-24T12:27:54.927Z,20.90
2022-10-24T12:30:24.248Z,20.90
2022-10-24T12:32:54.003Z,20.90
2022-10-24T12:35:35.814Z,21.00
2022-10-24T12:38:16.295Z,21.00
2022-10-24T12:40:46.280Z,21.00
2022-10-24T12:43:32.204Z,21.10
2022-10-24T12:46:09.406Z,21.30
2022-10-24T12:48:57.167Z,21.40
2022-10-24T12:51:36.748Z,21.50
2022-10-24T12:54:12.420Z,21.40
2022-10-24T12:56:51.231Z,21.40
2022-10-24T12:59:22.264Z,21.40
2022-10-24T13:01:51.438Z,21.40
2022-10-24T13:04:27.489Z,21.30
2022-10-24T13:07:45.072Z,21.40
2022-10-24T13:11:03.599Z,21.40
2022-10-24T13:14:04.523Z,21.50
2022-10-24T13:16:44.106Z,21.50
2022-10-24T13:19:19.587Z,21.50
2022-10-24T13:22:00.655Z,21.60
2022-10-24T13:24:34.806Z,21.60
2022-10-24T13:27:12.639Z,21.70
2022-10-24T13:29:40.013Z,21.70
2022-10-24T13:32:06.782Z,21.80
2022-10-24T13:34:55.988Z,21.80
2022-10-24T13:37:37.789Z,21.80
2022-10-24T13:40:28.077Z,21.80
2022-10-24T13:43:06.826Z,21.70
2022-10-24T13:45:49.860Z,21.70
2022-10-24T13:48:21.188Z,21.70
2022-10-24T13:51:02.942Z,21.70
2022-10-24T13:53:44.030Z,21.70
2022-10-24T13:56:13.447Z,21.60
2022-10-24T13:58:44.735Z,21.60
2022-10-24T14:01:25.691Z,21.50
2022-10-24T14:03:54.497Z,21.40
2022-10-24T14:06:27.794Z,21.40
2022-10-24T14:09:06.406Z,21.30
2022-10-24T14:11:38.958Z,21.20
2022-10-24T14:14:10.948Z,21.20
2022-10-24T14:16:39.968Z,21.20
2022-10-24T14:19:16.017Z,21.20
2022-10-24T14:21:46.090Z,21.10
2022-10-24T14:24:21.478Z,21.10
2022-10-24T14:26:51.800Z,21.20
2022-10-24T14:29:32.390Z,21.10
2022-10-24T14:32:07.944Z,21.10
2022-10-24T14:34:37.283Z,21.10
2022-10-24T14:37:27.938Z,21.10
2022-10-24T14:39:55.889Z,21.10
2022-10-24T14:42:23.157Z,21.00
2022-10-24T14:44:54.845Z,21.00
2022-10-24T14:47:28.256Z,21.00
2022-10-24T14:49:55.330Z,20.90
2022-10-24T14:52:32.566Z,20.80
2022-10-24T14:55:08.101Z,20.90
2022-10-24T14:57:36.791Z,20.90
2022-10-24T15:00:08.847Z,20.90
2022-10-24T15:02:42.026Z,20.80
2022-10-24T15:05:19.235Z,20.80
2022-10-24T15:08:27.315Z,20.80
2022-10-24T15:11:07.292Z,20.80
2022-10-24T15:13:48.186Z,20.70
2022-10-24T15:16:37.498Z,20.70
2022-10-24T15:19:06.158Z,20.70
2022-10-24T15:21:40.122Z,20.60
2022-10-24T15:24:18.150Z,20.60
2022-10-24T15:26:46.192Z,20.60
2022-10-24T15:29:13.057Z,20.50
2022-10-24T15:31:42.629Z,20.50
2022-10-24T15:34:15.698Z,20.40
2022-10-24T15:36:45.801Z,20.40
2022-10-24T15:39:20.073Z,20.30
2022-10-24T15:41:47.125Z,20.20
2022-10-24T15:44:19.478Z,20.20
2022-10-24T15:46:46.800Z,20.10
2022-10-24T15:49:14.560Z,20.10
2022-10-24T15:51:47.404Z,20.10
2022-10-24T15:54:19.021Z,20.00
2022-10-24T15:56:45.821Z,20.00
2022-10-24T15:59:12.745Z,20.00
2022-10-24T16:01:47.581Z,20.00
2022-10-24T16:04:15.053Z,19.90
2022-10-24T16:06:41.942Z,19.90
2022-10-24T16:09:20.620Z,19.90
2022-10-24T16:11:47.739Z,19.80
2022-10-24T16:14:16.433Z,19.70
2022-10-24T16:16:43.725Z,19.70
2022-10-24T16:19:10.764Z,19.70
2022-10-24T16:21:39.458Z,19.70
2022-10-24T16:24:07.523Z,19.70
2022-10-24T16:26:35.113Z,19.60
2022-10-24T16:29:02.050Z,19.50
2022-10-24T16:31:29.035Z,19.50
2022-10-24T16:33:55.915Z,19.50
2022-10-24T16:36:24.783Z,19.40
2022-10-24T16:38:52.479Z,19.30
2022-10-24T16:41:22.924Z,19.30
2022-10-24T16:43:50.912Z,19.20
2022-10-24T16:46:20.732Z,19.20
2022-10-24T16:48:47.996Z,19.20
2022-10-24T16:51:18.189Z,19.10
2022-10-24T16:53:45.133Z,19.10
2022-10-24T16:56:14.239Z,19.00
2022-10-24T16:58:41.830Z,19.00
2022-10-24T17:01:11.822Z,19.00
2022-10-24T17:03:39.471Z,19.00
2022-10-24T17:06:06.769Z,18.90
2022-10-24T17:08:33.990Z,18.80
2022-10-24T17:11:00.926Z,18.70
2022-10-24T17:13:28.233Z,18.60
2022-10-24T17:15:55.431Z,18.50
2022-10-24T17:18:25.338Z,18.40
2022-10-24T17:20:58.775Z,18.40
2022-10-24T17:23:26.334Z,18.30
2022-10-24T17:25:53.638Z,18.20
2022-10-24T17:28:20.851Z,18.10
2022-10-24T17:30:48.005Z,18.00
2022-10-24T17:33:16.130Z,18.00
2022-10-24T17:35:50.532Z,17.90
2022-10-24T17:38:40.232Z,17.60
2022-10-24T17:41:19.413Z,17.70
2022-10-24T17:43:46.542Z,17.70
2022-10-24T17:46:13.997Z,17.60
2022-10-24T17:48:40.875Z,17.50
2022-10-24T17:51:10.793Z,17.50
2022-10-24T17:53:37.645Z,17.40
2022-10-24T17:56:04.756Z,17.50
2022-10-24T17:58:31.729Z,17.30
2022-10-24T18:00:58.632Z,17.20
2022-10-24T18:03:27.686Z,17.20
2022-10-24T18:06:05.921Z,17.20
2022-10-24T18:08:33.251Z,17.10
2022-10-24T18:11:02.129Z,17.10
2022-10-24T18:13:29.461Z,17.10
2022-10-24T18:15:56.456Z,17.00
2022-10-24T18:18:23.547Z,17.00
2022-10-24T18:20:50.852Z,17.00
2022-10-24T18:23:17.710Z,17.10
2022-10-24T18:25:44.559Z,17.10
2022-10-24T18:28:11.483Z,17.10
2022-10-24T18:30:38.473Z,17.20
2022-10-24T18:33:05.352Z,17.20
2022-10-24T18:35:34.080Z,17.20
2022-10-24T18:38:02.074Z,17.20
2022-10-24T18:40:29.366Z,17.30
2022-10-24T18:43:07.437Z,17.40
2022-10-24T18:45:35.015Z,17.30
2022-10-24T18:48:02.439Z,17.40
2022-10-24T18:50:29.708Z,17.30
2022-10-24T18:53:06.922Z,17.40
2022-10-24T18:55:34.853Z,17.40
2022-10-24T18:58:02.522Z,17.40
2022-10-24T19:00:32.409Z,17.40
2022-10-24T19:03:15.868Z,17.40
2022-10-24T19:05:51.862Z,17.40
2022-10-24T19:08:23.846Z,17.30
2022-10-24T19:10:52.843Z,17.20
2022-10-24T19:13:19.866Z,17.10
2022-10-24T19:15:57.617Z,17.10
2022-10-24T19:18:25.629Z,17.00
2022-10-24T19:20:52.481Z,17.00
2022-10-24T19:23:19.384Z,16.90
2022-10-24T19:25:46.304Z,16.90
2022-10-24T19:28:17.452Z,16.80
2022-10-24T19:30:45.073Z,16.80
2022-10-24T19:33:13.608Z,16.70
2022-10-24T19:35:46.817Z,16.70
2022-10-24T19:38:15.137Z,16.70
2022-10-24T19:40:51.476Z,16.60
2022-10-24T19:43:19.309Z,16.60
2022-10-24T19:45:50.353Z,16.60
2022-10-24T19:48:25.369Z,16.60
2022-10-24T19:50:52.310Z,16.60
2022-10-24T19:53:19.447Z,16.60
2022-10-24T19:55:46.363Z,16.70
2022-10-24T19:58:18.767Z,16.70
2022-10-24T20:00:46.395Z,16.80
2022-10-24T20:03:14.049Z,16.80
2022-10-24T20:05:42.260Z,16.80
2022-10-24T20:08:09.161Z,16.80
2022-10-24T20:10:37.060Z,16.80
2022-10-24T20:13:03.889Z,16.80
2022-10-24T20:15:30.719Z,16.70
2022-10-24T20:17:57.551Z,16.70
2022-10-24T20:20:25.025Z,16.70
2022-10-24T20:22:51.922Z,16.70
2022-10-24T20:25:20.128Z,16.70
2022-10-24T20:27:47.310Z,16.60
2022-10-24T20:30:14.388Z,16.60
2022-10-24T20:32:41.216Z,16.50
2022-10-24T20:35:08.415Z,16.50
2022-10-24T20:37:35.250Z,16.60
2022-10-24T20:40:02.189Z,16.60
2022-10-24T20:42:29.038Z,16.60
2022-10-24T20:44:55.909Z,16.70
2022-10-24T20:47:22.805Z,16.80
2022-10-24T20:49:49.673Z,16.70
2022-10-24T20:52:16.613Z,16.70
2022-10-24T20:54:43.463Z,16.70
2022-10-24T20:57:10.461Z,16.70
2022-10-24T20:59:37.352Z,16.70
2022-10-24T21:02:04.377Z,16.70
2022-10-24T21:04:31.257Z,16.70
2022-10-24T21:06:58.087Z,16.60
2022-10-24T21:09:24.942Z,16.60
2022-10-24T21:11:51.823Z,16.50
2022-10-24T21:14:20.582Z,16.40
2022-10-24T21:16:47.791Z,16.40
2022-10-24T21:19:14.741Z,16.30
2022-10-24T21:21:41.760Z,16.20
2022-10-24T21:24:16.466Z,16.20
2022-10-24T21:26:43.532Z,16.10
2022-10-24T21:31:57.821Z,16.00
2022-10-24T21:34:25.916Z,16.00
2022-10-24T21:36:54.775Z,16.00
2022-10-24T21:39:21.731Z,16.00
2022-10-24T21:41:48.551Z,15.90
2022-10-24T21:44:15.392Z,15.90
2022-10-24T21:46:42.335Z,15.90
2022-10-24T21:49:09.438Z,16.00
2022-10-24T21:51:37.350Z,16.00
2022-10-24T21:54:06.474Z,16.10
2022-10-24T21:56:36.727Z,16.10
2022-10-24T21:59:06.681Z,16.20
2022-10-24T22:01:35.832Z,16.20
2022-10-24T22:04:03.622Z,16.30
2022-10-24T22:06:31.933Z,16.30
2022-10-24T22:08:59.479Z,16.40
2022-10-24T22:11:31.578Z,16.40
2022-10-24T22:13:59.082Z,16.40
2022-10-24T22:16:29.040Z,16.30
2022-10-24T22:18:58.874Z,16.20
2022-10-24T22:21:30.447Z,16.10
2022-10-24T22:24:21.670Z,16.00
2022-10-24T22:26:49.096Z,16.00
2022-10-24T22:29:19.576Z,16.00
2022-10-24T22:31:47.311Z,16.00
2022-10-24T22:34:23.701Z,16.00
2022-10-24T22:37:06.059Z,16.00
2022-10-24T22:39:33.156Z,16.00
2022-10-24T22:42:00.296Z,16.10
2022-10-24T22:44:27.379Z,16.10
2022-10-24T22:47:09.262Z,16.10
2022-10-24T22:49:54.101Z,16.10
2022-10-24T22:52:21.325Z,16.10
2022-10-24T22:54:48.469Z,16.10
2022-10-24T22:57:15.726Z,16.10
2022-10-24T22:59:42.825Z,16.00
2022-10-24T23:02:12.507Z,15.90
2022-10-24T23:04:46.311Z,15.90
2022-10-24T23:07:27.644Z,15.70
2022-10-24T23:09:54.824Z,15.70
2022-10-24T23:12:22.743Z,15.50
2022-10-24T23:14:51.060Z,15.50
2022-10-24T23:17:26.436Z,15.50
2022-10-24T23:19:54.892Z,15.40
2022-10-24T23:22:24.885Z,15.40
2022-10-24T23:24:54.034Z,15.30
2022-10-24T23:27:34.695Z,15.20
2022-10-24T23:30:04.119Z,15.20
2022-10-24T23:32:33.526Z,15.20
2022-10-24T23:35:01.047Z,15.10
2022-10-24T23:37:32.778Z,15.10
2022-10-24T23:40:01.988Z,15.10
2022-10-24T23:42:29.193Z,15.10
2022-10-24T23:44:56.381Z,15.00
2022-10-24T23:47:50.811Z,14.90
2022-10-24T23:51:09.229Z,14.90
2022-10-24T23:53:55.869Z,14.90
2022-10-24T23:56:32.043Z,14.90
2022-10-24T23:58:58.872Z,14.90
